sensor_id;sensor_type;location;lat;lon;timestamp;pressure;altitude;pressure_sealevel;temperature;humidity
27805;BME280;15183;51.350;11.102;2024-01-30T00:00:47;101445.91;;;5.98;66.55
27805;BME280;15183;51.350;11.102;2024-01-30T00:03:13;101473.00;;;6.17;66.37
27805;BME280;15183;51.350;11.102;2024-01-30T00:05:40;101439.59;;;6.09;66.46
27805;BME280;15183;51.350;11.102;2024-01-30T00:08:07;101438.94;;;6.07;65.98
27805;BME280;15183;51.350;11.102;2024-01-30T00:10:33;101439.97;;;6.14;66.49
27805;BME280;15183;51.350;11.102;2024-01-30T00:12:59;101415.53;;;6.04;66.00
27805;BME280;15183;51.350;11.102;2024-01-30T00:15:26;101427.44;;;6.08;66.33
27805;BME280;15183;51.350;11.102;2024-01-30T00:17:52;101440.41;;;6.10;66.02
27805;BME280;15183;51.350;11.102;2024-01-30T00:20:20;101460.72;;;6.26;66.10
27805;BME280;15183;51.350;11.102;2024-01-30T00:22:46;101445.94;;;6.25;66.49
27805;BME280;15183;51.350;11.102;2024-01-30T00:25:14;101418.72;;;6.16;66.50
27805;BME280;15183;51.350;11.102;2024-01-30T00:27:41;101445.31;;;6.39;65.92
27805;BME280;15183;51.350;11.102;2024-01-30T00:30:08;101446.84;;;6.42;66.27
27805;BME280;15183;51.350;11.102;2024-01-30T00:32:35;101376.25;;;6.02;66.38
27805;BME280;15183;51.350;11.102;2024-01-30T00:35:01;101443.56;;;6.48;65.99
27805;BME280;15183;51.350;11.102;2024-01-30T00:37:28;101354.47;;;5.92;66.24
27805;BME280;15183;51.350;11.102;2024-01-30T00:39:55;101421.63;;;6.39;66.29
27805;BME280;15183;51.350;11.102;2024-01-30T00:42:23;101417.69;;;6.43;66.17
27805;BME280;15183;51.350;11.102;2024-01-30T00:44:50;101434.72;;;6.57;65.76
27805;BME280;15183;51.350;11.102;2024-01-30T00:47:16;101432.91;;;6.58;65.73
27805;BME280;15183;51.350;11.102;2024-01-30T00:49:43;101416.78;;;6.53;65.81
27805;BME280;15183;51.350;11.102;2024-01-30T00:52:10;101413.13;;;6.45;65.63
27805;BME280;15183;51.350;11.102;2024-01-30T00:54:36;101394.81;;;6.35;66.11
27805;BME280;15183;51.350;11.102;2024-01-30T00:57:04;101434.38;;;6.60;65.70
27805;BME280;15183;51.350;11.102;2024-01-30T00:59:30;101424.19;;;6.57;66.08
27805;BME280;15183;51.350;11.102;2024-01-30T01:01:57;101441.50;;;6.68;66.04
27805;BME280;15183;51.350;11.102;2024-01-30T01:04:23;101435.25;;;6.69;65.90
27805;BME280;15183;51.350;11.102;2024-01-30T01:06:50;101411.00;;;6.49;65.98
27805;BME280;15183;51.350;11.102;2024-01-30T01:09:17;101413.81;;;6.56;65.82
27805;BME280;15183;51.350;11.102;2024-01-30T01:11:43;101441.03;;;6.73;65.31
27805;BME280;15183;51.350;11.102;2024-01-30T01:14:09;101406.91;;;6.55;65.43
27805;BME280;15183;51.350;11.102;2024-01-30T01:16:36;101436.91;;;6.70;65.31
27805;BME280;15183;51.350;11.102;2024-01-30T01:19:03;101423.84;;;6.52;64.92
27805;BME280;15183;51.350;11.102;2024-01-30T01:21:31;101426.06;;;6.30;64.98
27805;BME280;15183;51.350;11.102;2024-01-30T01:23:57;101428.25;;;6.08;64.74
27805;BME280;15183;51.350;11.102;2024-01-30T01:26:23;101421.03;;;5.92;65.79
27805;BME280;15183;51.350;11.102;2024-01-30T01:28:51;101404.91;;;5.87;66.23
27805;BME280;15183;51.350;11.102;2024-01-30T01:31:18;101424.41;;;6.03;66.06
27805;BME280;15183;51.350;11.102;2024-01-30T01:33:45;101419.69;;;6.06;65.99
27805;BME280;15183;51.350;11.102;2024-01-30T01:36:11;101404.50;;;6.00;65.84
27805;BME280;15183;51.350;11.102;2024-01-30T01:38:39;101387.47;;;5.86;65.77
27805;BME280;15183;51.350;11.102;2024-01-30T01:41:05;101427.13;;;6.11;66.32
27805;BME280;15183;51.350;11.102;2024-01-30T01:43:32;101414.94;;;6.10;65.86
27805;BME280;15183;51.350;11.102;2024-01-30T01:45:59;101427.59;;;6.15;65.78
27805;BME280;15183;51.350;11.102;2024-01-30T01:48:25;101399.59;;;6.05;65.97
27805;BME280;15183;51.350;11.102;2024-01-30T01:50:52;101421.41;;;6.24;66.02
27805;BME280;15183;51.350;11.102;2024-01-30T01:53:19;101404.91;;;6.14;66.06
27805;BME280;15183;51.350;11.102;2024-01-30T01:55:46;101423.56;;;6.29;65.60
27805;BME280;15183;51.350;11.102;2024-01-30T01:58:14;101424.09;;;6.32;65.71
27805;BME280;15183;51.350;11.102;2024-01-30T02:00:41;101421.81;;;6.37;65.75
27805;BME280;15183;51.350;11.102;2024-01-30T02:03:10;101402.50;;;6.29;65.43
27805;BME280;15183;51.350;11.102;2024-01-30T02:05:39;101415.38;;;6.40;65.59
27805;BME280;15183;51.350;11.102;2024-01-30T02:08:06;101387.06;;;6.34;65.24
27805;BME280;15183;51.350;11.102;2024-01-30T02:10:32;101387.91;;;6.34;65.23
27805;BME280;15183;51.350;11.102;2024-01-30T02:12:59;101323.69;;;5.84;65.52
27805;BME280;15183;51.350;11.102;2024-01-30T02:15:26;101389.38;;;6.37;65.43
27805;BME280;15183;51.350;11.102;2024-01-30T02:17:52;101411.81;;;6.49;65.53
27805;BME280;15183;51.350;11.102;2024-01-30T02:20:19;101350.16;;;6.09;65.36
27805;BME280;15183;51.350;11.102;2024-01-30T02:22:45;101409.69;;;6.53;65.74
27805;BME280;15183;51.350;11.102;2024-01-30T02:25:12;101354.66;;;6.25;65.37
27805;BME280;15183;51.350;11.102;2024-01-30T02:27:39;101390.91;;;6.48;65.37
27805;BME280;15183;51.350;11.102;2024-01-30T02:30:06;101387.09;;;6.42;65.31
27805;BME280;15183;51.350;11.102;2024-01-30T02:32:32;101370.94;;;6.29;65.69
27805;BME280;15183;51.350;11.102;2024-01-30T02:34:59;101365.78;;;6.19;65.42
27805;BME280;15183;51.350;11.102;2024-01-30T02:37:26;101374.22;;;6.31;65.74
27805;BME280;15183;51.350;11.102;2024-01-30T02:39:52;101389.38;;;6.37;65.67
27805;BME280;15183;51.350;11.102;2024-01-30T02:42:19;101305.16;;;5.68;65.36
27805;BME280;15183;51.350;11.102;2024-01-30T02:44:47;101371.84;;;6.11;65.36
27805;BME280;15183;51.350;11.102;2024-01-30T02:47:13;101382.56;;;6.18;65.46
27805;BME280;15183;51.350;11.102;2024-01-30T02:49:40;101398.19;;;6.19;65.57
27805;BME280;15183;51.350;11.102;2024-01-30T02:52:06;101374.44;;;6.03;65.81
27805;BME280;15183;51.350;11.102;2024-01-30T02:54:33;101389.28;;;6.12;65.89
27805;BME280;15183;51.350;11.102;2024-01-30T02:56:59;101356.94;;;5.93;65.67
27805;BME280;15183;51.350;11.102;2024-01-30T02:59:26;101377.00;;;5.94;65.78
27805;BME280;15183;51.350;11.102;2024-01-30T03:01:52;101366.22;;;5.79;65.84
27805;BME280;15183;51.350;11.102;2024-01-30T03:04:19;101361.38;;;5.67;65.74
27805;BME280;15183;51.350;11.102;2024-01-30T03:06:46;101378.50;;;5.71;66.17
27805;BME280;15183;51.350;11.102;2024-01-30T03:09:18;101389.53;;;5.74;66.08
27805;BME280;15183;51.350;11.102;2024-01-30T03:11:45;101358.19;;;5.55;66.66
27805;BME280;15183;51.350;11.102;2024-01-30T03:14:12;101361.19;;;5.60;66.40
27805;BME280;15183;51.350;11.102;2024-01-30T03:16:39;101359.06;;;5.63;66.56
27805;BME280;15183;51.350;11.102;2024-01-30T03:19:08;101376.28;;;5.84;66.92
27805;BME280;15183;51.350;11.102;2024-01-30T03:21:35;101357.84;;;5.76;66.55
27805;BME280;15183;51.350;11.102;2024-01-30T03:24:02;101346.34;;;5.77;66.37
27805;BME280;15183;51.350;11.102;2024-01-30T03:26:28;101357.88;;;5.84;66.06
27805;BME280;15183;51.350;11.102;2024-01-30T03:28:54;101306.28;;;5.57;66.12
27805;BME280;15183;51.350;11.102;2024-01-30T03:31:21;101351.00;;;5.91;66.30
27805;BME280;15183;51.350;11.102;2024-01-30T03:33:47;101352.72;;;6.01;65.86
27805;BME280;15183;51.350;11.102;2024-01-30T03:36:15;101375.16;;;6.13;66.60
27805;BME280;15183;51.350;11.102;2024-01-30T03:38:43;101285.91;;;5.59;66.32
27805;BME280;15183;51.350;11.102;2024-01-30T03:41:09;101287.25;;;5.63;65.91
27805;BME280;15183;51.350;11.102;2024-01-30T03:43:37;101281.13;;;5.54;65.48
27805;BME280;15183;51.350;11.102;2024-01-30T03:46:04;101363.84;;;5.94;65.69
27805;BME280;15183;51.350;11.102;2024-01-30T03:48:30;101271.16;;;5.31;65.65
27805;BME280;15183;51.350;11.102;2024-01-30T03:50:57;101334.38;;;5.56;65.44
27805;BME280;15183;51.350;11.102;2024-01-30T03:53:23;101392.72;;;5.86;65.42
27805;BME280;15183;51.350;11.102;2024-01-30T03:55:50;101369.16;;;5.76;65.38
27805;BME280;15183;51.350;11.102;2024-01-30T03:58:16;101375.97;;;5.87;65.77
27805;BME280;15183;51.350;11.102;2024-01-30T04:00:43;101358.50;;;5.78;65.56
27805;BME280;15183;51.350;11.102;2024-01-30T04:03:09;101364.78;;;5.85;65.25
27805;BME280;15183;51.350;11.102;2024-01-30T04:05:36;101390.31;;;5.93;64.89
27805;BME280;15183;51.350;11.102;2024-01-30T04:08:02;101346.78;;;5.72;65.55
27805;BME280;15183;51.350;11.102;2024-01-30T04:10:29;101354.72;;;5.80;65.60
27805;BME280;15183;51.350;11.102;2024-01-30T04:12:55;101361.03;;;5.88;65.43
27805;BME280;15183;51.350;11.102;2024-01-30T04:15:22;101362.38;;;5.92;65.42
27805;BME280;15183;51.350;11.102;2024-01-30T04:17:49;101377.16;;;5.93;65.15
27805;BME280;15183;51.350;11.102;2024-01-30T04:20:16;101350.56;;;5.70;65.24
27805;BME280;15183;51.350;11.102;2024-01-30T04:22:46;101381.41;;;5.68;65.22
27805;BME280;15183;51.350;11.102;2024-01-30T04:25:13;101351.38;;;5.44;65.69
27805;BME280;15183;51.350;11.102;2024-01-30T04:27:40;101363.53;;;5.45;66.17
27805;BME280;15183;51.350;11.102;2024-01-30T04:30:07;101376.06;;;5.51;66.74
27805;BME280;15183;51.350;11.102;2024-01-30T04:32:34;101339.66;;;5.38;66.64
27805;BME280;15183;51.350;11.102;2024-01-30T04:35:01;101333.44;;;5.39;66.38
27805;BME280;15183;51.350;11.102;2024-01-30T04:37:27;101357.03;;;5.57;66.00
27805;BME280;15183;51.350;11.102;2024-01-30T04:39:53;101366.53;;;5.76;66.35
27805;BME280;15183;51.350;11.102;2024-01-30T04:42:20;101345.44;;;5.68;66.30
27805;BME280;15183;51.350;11.102;2024-01-30T04:44:46;101355.91;;;5.86;66.34
27805;BME280;15183;51.350;11.102;2024-01-30T04:47:13;101351.66;;;5.93;66.21
27805;BME280;15183;51.350;11.102;2024-01-30T04:49:40;101358.81;;;6.01;65.97
27805;BME280;15183;51.350;11.102;2024-01-30T04:52:09;101325.69;;;5.90;65.81
27805;BME280;15183;51.350;11.102;2024-01-30T04:54:36;101330.47;;;5.95;65.72
27805;BME280;15183;51.350;11.102;2024-01-30T04:57:03;101317.78;;;5.90;65.11
27805;BME280;15183;51.350;11.102;2024-01-30T04:59:32;101334.22;;;5.92;65.03
27805;BME280;15183;51.350;11.102;2024-01-30T05:01:58;101378.56;;;6.05;65.51
27805;BME280;15183;51.350;11.102;2024-01-30T05:04:24;101339.16;;;5.87;65.37
27805;BME280;15183;51.350;11.102;2024-01-30T05:06:51;101279.69;;;5.33;65.80
27805;BME280;15183;51.350;11.102;2024-01-30T05:09:17;101355.81;;;5.96;65.68
27805;BME280;15183;51.350;11.102;2024-01-30T05:11:45;101351.66;;;5.93;65.62
27805;BME280;15183;51.350;11.102;2024-01-30T05:14:11;101358.81;;;6.01;65.64
27805;BME280;15183;51.350;11.102;2024-01-30T05:16:39;101344.09;;;5.90;65.40
27805;BME280;15183;51.350;11.102;2024-01-30T05:19:05;101369.94;;;5.95;64.54
27805;BME280;15183;51.350;11.102;2024-01-30T05:21:32;101375.03;;;5.70;64.57
27805;BME280;15183;51.350;11.102;2024-01-30T05:23:58;101346.38;;;5.32;65.16
27805;BME280;15183;51.350;11.102;2024-01-30T05:26:25;101321.25;;;5.12;66.23
27805;BME280;15183;51.350;11.102;2024-01-30T05:28:52;101363.00;;;5.41;66.06
27805;BME280;15183;51.350;11.102;2024-01-30T05:31:20;101353.13;;;5.35;66.24
27805;BME280;15183;51.350;11.102;2024-01-30T05:33:47;101281.50;;;4.88;66.32
27805;BME280;15183;51.350;11.102;2024-01-30T05:36:13;101332.19;;;5.25;66.37
27805;BME280;15183;51.350;11.102;2024-01-30T05:38:40;101340.16;;;5.33;66.32
27805;BME280;15183;51.350;11.102;2024-01-30T05:41:07;101356.47;;;5.45;66.12
27805;BME280;15183;51.350;11.102;2024-01-30T05:43:34;101352.19;;;5.44;66.49
27805;BME280;15183;51.350;11.102;2024-01-30T05:46:01;101362.78;;;5.53;66.26
27805;BME280;15183;51.350;11.102;2024-01-30T05:48:27;101291.69;;;5.10;66.69
27805;BME280;15183;51.350;11.102;2024-01-30T05:50:54;101364.13;;;5.57;66.18
27805;BME280;15183;51.350;11.102;2024-01-30T05:53:21;101359.84;;;5.56;65.92
27805;BME280;15183;51.350;11.102;2024-01-30T05:55:47;101307.97;;;5.13;66.37
27805;BME280;15183;51.350;11.102;2024-01-30T05:58:15;101328.56;;;5.26;66.08
27805;BME280;15183;51.350;11.102;2024-01-30T06:00:41;101330.81;;;5.39;66.29
27805;BME280;15183;51.350;11.102;2024-01-30T06:03:08;101269.94;;;4.99;66.16
27805;BME280;15183;51.350;11.102;2024-01-30T06:05:35;101353.53;;;5.48;65.98
27805;BME280;15183;51.350;11.102;2024-01-30T06:08:04;101357.97;;;5.48;65.69
27805;BME280;15183;51.350;11.102;2024-01-30T06:10:30;101354.16;;;5.42;66.01
27805;BME280;15183;51.350;11.102;2024-01-30T06:12:56;101305.13;;;5.06;66.26
27805;BME280;15183;51.350;11.102;2024-01-30T06:15:23;101338.34;;;5.16;65.93
27805;BME280;15183;51.350;11.102;2024-01-30T06:17:50;101343.66;;;5.24;66.39
27805;BME280;15183;51.350;11.102;2024-01-30T06:20:16;101351.19;;;5.19;66.39
27805;BME280;15183;51.350;11.102;2024-01-30T06:22:43;101354.13;;;5.16;66.79
27805;BME280;15183;51.350;11.102;2024-01-30T06:25:09;101357.41;;;5.18;66.84
27805;BME280;15183;51.350;11.102;2024-01-30T06:27:38;101343.91;;;5.13;66.75
27805;BME280;15183;51.350;11.102;2024-01-30T06:30:06;101350.81;;;5.14;66.51
27805;BME280;15183;51.350;11.102;2024-01-30T06:32:33;101329.13;;;4.93;66.36
27805;BME280;15183;51.350;11.102;2024-01-30T06:35:01;101308.50;;;4.62;66.40
27805;BME280;15183;51.350;11.102;2024-01-30T06:37:28;101354.59;;;4.93;67.16
27805;BME280;15183;51.350;11.102;2024-01-30T06:39:54;101312.47;;;4.67;67.28
27805;BME280;15183;51.350;11.102;2024-01-30T06:42:21;101328.22;;;4.85;67.57
27805;BME280;15183;51.350;11.102;2024-01-30T06:44:47;101328.91;;;4.87;67.21
27805;BME280;15183;51.350;11.102;2024-01-30T06:47:14;101268.16;;;4.45;66.67
27805;BME280;15183;51.350;11.102;2024-01-30T06:49:40;101318.25;;;4.70;66.26
27805;BME280;15183;51.350;11.102;2024-01-30T06:52:08;101332.06;;;4.90;66.55
27805;BME280;15183;51.350;11.102;2024-01-30T06:54:35;101369.22;;;4.96;66.20
27805;BME280;15183;51.350;11.102;2024-01-30T06:57:01;101336.56;;;4.62;66.28
27805;BME280;15183;51.350;11.102;2024-01-30T06:59:28;101361.75;;;4.55;66.10
27805;BME280;15183;51.350;11.102;2024-01-30T07:01:55;101353.16;;;4.34;67.00
27805;BME280;15183;51.350;11.102;2024-01-30T07:04:22;101357.31;;;4.27;67.35
27805;BME280;15183;51.350;11.102;2024-01-30T07:06:49;101366.72;;;4.30;67.50
27805;BME280;15183;51.350;11.102;2024-01-30T07:09:15;101359.81;;;4.29;67.54
27805;BME280;15183;51.350;11.102;2024-01-30T07:11:42;101337.31;;;4.26;68.23
27805;BME280;15183;51.350;11.102;2024-01-30T07:14:09;101336.28;;;4.37;68.19
27805;BME280;15183;51.350;11.102;2024-01-30T07:16:36;101342.97;;;4.49;68.10
27805;BME280;15183;51.350;11.102;2024-01-30T07:19:03;101354.72;;;4.73;67.97
27805;BME280;15183;51.350;11.102;2024-01-30T07:21:30;101335.97;;;4.68;67.80
27805;BME280;15183;51.350;11.102;2024-01-30T07:23:57;101366.44;;;4.97;67.73
27805;BME280;15183;51.350;11.102;2024-01-30T07:26:24;101385.72;;;5.06;67.84
27805;BME280;15183;51.350;11.102;2024-01-30T07:28:50;101367.56;;;5.13;67.23
27805;BME280;15183;51.350;11.102;2024-01-30T07:31:17;101326.28;;;4.87;67.22
27805;BME280;15183;51.350;11.102;2024-01-30T07:33:46;101367.00;;;5.27;67.51
27805;BME280;15183;51.350;11.102;2024-01-30T07:36:13;101362.41;;;5.29;67.31
27805;BME280;15183;51.350;11.102;2024-01-30T07:38:39;101355.25;;;5.31;67.50
27805;BME280;15183;51.350;11.102;2024-01-30T07:41:06;101362.13;;;5.50;67.23
27805;BME280;15183;51.350;11.102;2024-01-30T07:43:34;101367.41;;;5.59;67.15
27805;BME280;15183;51.350;11.102;2024-01-30T07:46:00;101375.88;;;5.71;67.29
27805;BME280;15183;51.350;11.102;2024-01-30T07:48:29;101350.19;;;5.64;67.30
27805;BME280;15183;51.350;11.102;2024-01-30T07:50:55;101355.50;;;5.73;67.33
27805;BME280;15183;51.350;11.102;2024-01-30T07:53:21;101338.75;;;5.74;66.80
27805;BME280;15183;51.350;11.102;2024-01-30T07:55:49;101325.72;;;5.64;66.99
27805;BME280;15183;51.350;11.102;2024-01-30T07:58:17;101339.59;;;5.83;66.61
27805;BME280;15183;51.350;11.102;2024-01-30T08:00:44;101271.69;;;5.43;66.43
27805;BME280;15183;51.350;11.102;2024-01-30T08:03:11;101338.16;;;5.88;66.92
27805;BME280;15183;51.350;11.102;2024-01-30T08:05:38;101361.56;;;6.00;66.59
27805;BME280;15183;51.350;11.102;2024-01-30T08:08:05;101360.66;;;6.09;66.74
27805;BME280;15183;51.350;11.102;2024-01-30T08:10:32;101371.56;;;6.22;66.85
27805;BME280;15183;51.350;11.102;2024-01-30T08:12:58;101309.38;;;5.87;65.99
27805;BME280;15183;51.350;11.102;2024-01-30T08:15:25;101372.28;;;6.41;66.73
27805;BME280;15183;51.350;11.102;2024-01-30T08:17:51;101298.50;;;6.08;66.51
27805;BME280;15183;51.350;11.102;2024-01-30T08:20:24;101345.34;;;6.56;66.48
27805;BME280;15183;51.350;11.102;2024-01-30T08:22:52;101325.06;;;6.40;66.28
27805;BME280;15183;51.350;11.102;2024-01-30T08:25:18;101355.91;;;6.80;66.18
27805;BME280;15183;51.350;11.102;2024-01-30T08:27:45;101343.25;;;6.76;65.98
27805;BME280;15183;51.350;11.102;2024-01-30T08:30:12;101338.00;;;6.84;66.12
27805;BME280;15183;51.350;11.102;2024-01-30T08:32:38;101348.06;;;6.97;66.36
27805;BME280;15183;51.350;11.102;2024-01-30T08:35:06;101345.06;;;7.08;66.20
27805;BME280;15183;51.350;11.102;2024-01-30T08:37:32;101331.75;;;7.10;65.47
27805;BME280;15183;51.350;11.102;2024-01-30T08:39:59;101352.34;;;7.23;65.45
27805;BME280;15183;51.350;11.102;2024-01-30T08:42:26;101330.25;;;7.07;65.35
27805;BME280;15183;51.350;11.102;2024-01-30T08:44:53;101352.69;;;7.20;64.95
27805;BME280;15183;51.350;11.102;2024-01-30T08:47:20;101335.69;;;7.14;65.02
27805;BME280;15183;51.350;11.102;2024-01-30T08:49:46;101328.28;;;7.09;65.57
27805;BME280;15183;51.350;11.102;2024-01-30T08:52:14;101326.63;;;7.17;65.21
27805;BME280;15183;51.350;11.102;2024-01-30T08:54:40;101362.53;;;7.34;65.14
27805;BME280;15183;51.350;11.102;2024-01-30T08:57:07;101354.94;;;7.48;65.35
27805;BME280;15183;51.350;11.102;2024-01-30T08:59:34;101313.09;;;7.36;65.21
27805;BME280;15183;51.350;11.102;2024-01-30T09:02:00;101267.66;;;7.09;65.31
27805;BME280;15183;51.350;11.102;2024-01-30T09:04:27;101346.81;;;7.82;65.52
27805;BME280;15183;51.350;11.102;2024-01-30T09:06:53;101353.53;;;7.93;65.51
27805;BME280;15183;51.350;11.102;2024-01-30T09:09:19;101291.28;;;7.67;64.76
27805;BME280;15183;51.350;11.102;2024-01-30T09:11:47;101343.25;;;8.07;64.64
27805;BME280;15183;51.350;11.102;2024-01-30T09:14:13;101339.78;;;8.06;64.63
27805;BME280;15183;51.350;11.102;2024-01-30T09:16:40;101338.09;;;8.14;64.55
27805;BME280;15183;51.350;11.102;2024-01-30T09:19:08;101351.28;;;8.22;64.33
27805;BME280;15183;51.350;11.102;2024-01-30T09:24:09;101353.34;;;8.43;64.92
27805;BME280;15183;51.350;11.102;2024-01-30T09:26:36;101275.34;;;8.01;64.92
27805;BME280;15183;51.350;11.102;2024-01-30T09:29:02;101356.03;;;8.66;64.75
27805;BME280;15183;51.350;11.102;2024-01-30T09:31:28;101300.56;;;8.35;64.69
27805;BME280;15183;51.350;11.102;2024-01-30T09:33:55;101318.75;;;8.61;64.60
27805;BME280;15183;51.350;11.102;2024-01-30T09:36:21;101365.25;;;8.94;64.43
27805;BME280;15183;51.350;11.102;2024-01-30T09:38:48;101289.56;;;8.54;63.87
27805;BME280;15183;51.350;11.102;2024-01-30T09:41:15;101276.34;;;8.54;63.81
27805;BME280;15183;51.350;11.102;2024-01-30T09:43:42;101302.00;;;8.69;63.66
27805;BME280;15183;51.350;11.102;2024-01-30T09:46:17;101203.44;;;8.22;63.56
27805;BME280;15183;51.350;11.102;2024-01-30T09:48:46;101363.50;;;9.09;63.18
27805;BME280;15183;51.350;11.102;2024-01-30T09:51:15;101250.69;;;8.40;63.58
27805;BME280;15183;51.350;11.102;2024-01-30T09:53:43;101273.38;;;8.58;63.98
27805;BME280;15183;51.350;11.102;2024-01-30T09:56:15;101328.72;;;8.97;63.31
27805;BME280;15183;51.350;11.102;2024-01-30T09:58:42;101293.69;;;8.80;63.56
27805;BME280;15183;51.350;11.102;2024-01-30T10:01:09;101293.59;;;8.89;63.37
27805;BME280;15183;51.350;11.102;2024-01-30T10:03:36;101276.69;;;8.98;63.97
27805;BME280;15183;51.350;11.102;2024-01-30T10:06:02;101340.16;;;9.51;63.80
27805;BME280;15183;51.350;11.102;2024-01-30T10:08:30;101270.63;;;9.12;63.46
27805;BME280;15183;51.350;11.102;2024-01-30T10:10:57;101343.66;;;9.67;63.96
27805;BME280;15183;51.350;11.102;2024-01-30T10:13:23;101292.09;;;9.48;63.27
27805;BME280;15183;51.350;11.102;2024-01-30T10:15:49;101276.28;;;9.54;63.48
27805;BME280;15183;51.350;11.102;2024-01-30T10:18:17;101277.81;;;9.64;63.10
27805;BME280;15183;51.350;11.102;2024-01-30T10:20:43;101328.19;;;10.01;63.18
27805;BME280;15183;51.350;11.102;2024-01-30T10:23:10;101322.06;;;10.15;62.93
27805;BME280;15183;51.350;11.102;2024-01-30T10:25:37;101290.75;;;10.04;62.52
27805;BME280;15183;51.350;11.102;2024-01-30T10:28:05;101331.97;;;10.43;62.89
27805;BME280;15183;51.350;11.102;2024-01-30T10:30:31;101344.66;;;10.63;62.81
27805;BME280;15183;51.350;11.102;2024-01-30T10:32:57;101292.75;;;10.38;62.85
27805;BME280;15183;51.350;11.102;2024-01-30T10:35:24;101324.44;;;10.62;62.56
27805;BME280;15183;51.350;11.102;2024-01-30T10:37:50;101321.78;;;10.62;62.28
27805;BME280;15183;51.350;11.102;2024-01-30T10:40:22;101337.19;;;10.73;62.49
27805;BME280;15183;51.350;11.102;2024-01-30T10:42:53;101232.13;;;10.07;62.83
27805;BME280;15183;51.350;11.102;2024-01-30T10:45:23;101329.00;;;10.68;62.99
27805;BME280;15183;51.350;11.102;2024-01-30T10:47:55;101268.78;;;10.40;62.91
27805;BME280;15183;51.350;11.102;2024-01-30T10:50:27;101307.34;;;10.64;62.59
27805;BME280;15183;51.350;11.102;2024-01-30T10:52:55;101350.88;;;10.98;62.28
27805;BME280;15183;51.350;11.102;2024-01-30T10:55:22;101327.56;;;10.94;62.42
27805;BME280;15183;51.350;11.102;2024-01-30T10:57:51;101280.03;;;10.64;62.27
27805;BME280;15183;51.350;11.102;2024-01-30T11:00:18;101262.91;;;10.66;62.46
27805;BME280;15183;51.350;11.102;2024-01-30T11:02:48;101266.25;;;10.75;62.27
27805;BME280;15183;51.350;11.102;2024-01-30T11:05:24;101296.13;;;10.91;62.36
27805;BME280;15183;51.350;11.102;2024-01-30T11:07:52;101262.69;;;10.90;61.92
27805;BME280;15183;51.350;11.102;2024-01-30T11:10:19;101295.50;;;11.10;61.57
27805;BME280;15183;51.350;11.102;2024-01-30T11:12:46;101259.56;;;11.08;61.84
27805;BME280;15183;51.350;11.102;2024-01-30T11:15:18;101191.63;;;10.78;61.22
27805;BME280;15183;51.350;11.102;2024-01-30T11:20:16;101310.84;;;11.79;61.50
27805;BME280;15183;51.350;11.102;2024-01-30T11:22:45;101237.16;;;11.46;61.72
27805;BME280;15183;51.350;11.102;2024-01-30T11:25:17;101238.44;;;11.56;61.27
27805;BME280;15183;51.350;11.102;2024-01-30T11:27:44;101249.50;;;11.67;60.98
27805;BME280;15183;51.350;11.102;2024-01-30T11:30:22;101295.44;;;12.09;61.26
27805;BME280;15183;51.350;11.102;2024-01-30T11:33:11;101273.97;;;12.11;61.28
27805;BME280;15183;51.350;11.102;2024-01-30T11:35:40;101303.09;;;12.33;61.33
27805;BME280;15183;51.350;11.102;2024-01-30T11:38:08;101223.28;;;12.06;61.20
27805;BME280;15183;51.350;11.102;2024-01-30T11:40:37;101280.03;;;12.53;61.11
27805;BME280;15183;51.350;11.102;2024-01-30T11:43:06;101241.78;;;12.34;61.44
27805;BME280;15183;51.350;11.102;2024-01-30T11:45:34;101261.00;;;12.56;61.07
27805;BME280;15183;51.350;11.102;2024-01-30T11:48:01;101175.09;;;12.22;61.08
27805;BME280;15183;51.350;11.102;2024-01-30T11:50:30;101171.44;;;12.23;61.04
27805;BME280;15183;51.350;11.102;2024-01-30T11:53:01;101195.16;;;12.52;60.77
27805;BME280;15183;51.350;11.102;2024-01-30T11:55:29;101192.91;;;12.55;60.45
27805;BME280;15183;51.350;11.102;2024-01-30T11:57:59;101199.47;;;12.59;60.71
27805;BME280;15183;51.350;11.102;2024-01-30T12:00:29;101194.13;;;12.59;60.63
27805;BME280;15183;51.350;11.102;2024-01-30T12:02:57;101175.09;;;12.49;60.82
27805;BME280;15183;51.350;11.102;2024-01-30T12:05:24;101220.69;;;12.86;60.94
27805;BME280;15183;51.350;11.102;2024-01-30T12:07:51;101259.13;;;13.17;60.52
27805;BME280;15183;51.350;11.102;2024-01-30T12:10:18;101208.84;;;12.89;60.67
27805;BME280;15183;51.350;11.102;2024-01-30T12:12:47;101242.97;;;13.26;60.66
27805;BME280;15183;51.350;11.102;2024-01-30T12:15:15;101220.00;;;13.25;60.86
27805;BME280;15183;51.350;11.102;2024-01-30T12:17:42;101181.59;;;13.07;60.51
27805;BME280;15183;51.350;11.102;2024-01-30T12:20:19;101201.97;;;13.34;60.39
27805;BME280;15183;51.350;11.102;2024-01-30T12:22:48;101226.09;;;13.59;60.37
27805;BME280;15183;51.350;11.102;2024-01-30T12:25:18;101212.38;;;13.55;60.31
27805;BME280;15183;51.350;11.102;2024-01-30T12:27:47;101207.59;;;13.71;60.14
27805;BME280;15183;51.350;11.102;2024-01-30T12:30:19;101227.59;;;13.94;60.28
27805;BME280;15183;51.350;11.102;2024-01-30T12:32:49;101229.38;;;14.00;60.01
27805;BME280;15183;51.350;11.102;2024-01-30T12:35:20;101196.03;;;13.91;59.89
27805;BME280;15183;51.350;11.102;2024-01-30T12:37:48;101140.69;;;13.54;59.63
27805;BME280;15183;51.350;11.102;2024-01-30T12:40:16;101217.91;;;13.99;59.46
27805;BME280;15183;51.350;11.102;2024-01-30T12:42:45;101156.81;;;13.66;59.83
27805;BME280;15183;51.350;11.102;2024-01-30T12:45:15;101164.63;;;13.67;59.55
27805;BME280;15183;51.350;11.102;2024-01-30T12:47:42;101086.16;;;13.17;59.50
27805;BME280;15183;51.350;11.102;2024-01-30T12:50:08;101156.03;;;13.65;59.63
27805;BME280;15183;51.350;11.102;2024-01-30T12:52:36;101149.84;;;13.71;59.32